This is the latest recevied weather packets stored in our database for station/object SP2ARK-10. If no packets are shown the sender has not sent any weather packets the latest 10 day(s).
| Time | Temp. | Humidity | Pressure | Rain* | Wind** | Luminosity | Snow |
|---|---|---|---|---|---|---|---|
| 1777564906 | 15.56° C | 58% | 1032.9 hPa | - | - | - | - |
| 1777564005 | 15.56° C | 57% | 1032.9 hPa | - | - | - | - |
| 1777563105 | 15.56° C | 57% | 1032.9 hPa | - | - | - | - |
| 1777562204 | 16.11° C | 56% | 1032.8 hPa | - | - | - | - |
| 1777561303 | 16.11° C | 55% | 1033 hPa | - | - | - | - |
| 1777560402 | 17.22° C | 55% | 1033.1 hPa | - | - | - | - |
| 1777559502 | 17.22° C | 55% | 1033.2 hPa | - | - | - | - |
| 1777558601 | 17.22° C | 55% | 1033.4 hPa | - | - | - | - |
| 1777557701 | 17.22° C | 53% | 1033.7 hPa | - | - | - | - |
| 1777556800 | 18.33° C | 53% | 1033.7 hPa | - | - | - | - |
| 1777555899 | 17.22° C | 53% | 1033.9 hPa | - | - | - | - |
| 1777554998 | 16.67° C | 54% | 1033.9 hPa | - | - | - | - |
| 1777554098 | 15° C | 53% | 1034.3 hPa | - | - | - | - |
| 1777553197 | 16.11° C | 52% | 1034.6 hPa | - | - | - | - |
| 1777552297 | 15° C | 52% | 1034.8 hPa | - | - | - | - |
| 1777551396 | 14.44° C | 55% | 1035 hPa | - | - | - | - |
| 1777550496 | 15° C | 53% | 1035 hPa | - | - | - | - |
| 1777549594 | 13.33° C | 54% | 1035.2 hPa | - | - | - | - |
| 1777548694 | 13.89° C | 54% | 1035.4 hPa | - | - | - | - |
| 1777547793 | 12.22° C | 55% | 1035.7 hPa | - | - | - | - |
| 1777546892 | 12.78° C | 54% | 1035.7 hPa | - | - | - | - |
| 1777545992 | 13.33° C | 54% | 1035.6 hPa | - | - | - | - |
| 1777545091 | 12.78° C | 55% | 1035.8 hPa | - | - | - | - |
| 1777544191 | 12.22° C | 55% | 1035.9 hPa | - | - | - | - |
| 1777543290 | 11.11° C | 55% | 1036.1 hPa | - | - | - | - |
* Rain since midnight (hover to see other rain measurements)
** Current wind speed in m/s (hover to see current wind gust speed)